Time;durP1;ratioP1;P1;durP2;ratioP2;P2;SDS_P1;SDS_P2;PMS_P1;PMS_P2;Temp;Humidity;BMP_temperature;BMP_pressure;BME280_temperature;BME280_humidity;BME280_pressure;Samples;Min_cycle;Max_cycle;Signal;HPM_P1;HPM_P2
2023/04/02 00:02:20;;;;;;;4.13;1.38;;;17.70;1.00;;;;;;5012849;28;20045;-36
2023/04/02 00:05:15;;;;;;;8.43;1.45;;;17.70;1.00;;;;;;5002626;28;20060;-35
2023/04/02 00:07:47;;;;;;;5.07;1.42;;;17.60;1.00;;;;;;5013164;28;20038;-35
2023/04/02 00:10:32;;;;;;;3.85;0.98;;;17.60;1.00;;;;;;5012936;28;20115;-35
2023/04/02 00:13:00;;;;;;;4.47;1.67;;;17.60;1.00;;;;;;5011890;28;20050;-35
2023/04/02 00:15:27;;;;;;;3.78;1.30;;;17.60;1.00;;;;;;5012627;28;20038;-35
2023/04/02 00:17:55;;;;;;;4.35;1.42;;;17.60;1.00;;;;;;5012894;28;20046;-35
2023/04/02 00:20:24;;;;;;;3.80;0.88;;;17.60;1.00;;;;;;5012567;28;20042;-35
2023/04/02 00:22:53;;;;;;;8.35;1.13;;;17.60;1.00;;;;;;5011784;28;20049;-35
2023/04/02 00:25:20;;;;;;;3.28;1.50;;;17.70;1.00;;;;;;5012664;28;20042;-35
2023/04/02 00:27:47;;;;;;;5.13;0.88;;;17.70;1.00;;;;;;5012514;28;20104;-35
2023/04/02 00:30:14;;;;;;;4.75;1.05;;;17.80;1.00;;;;;;5012542;28;20489;-35
2023/04/02 00:32:42;;;;;;;4.10;1.40;;;17.80;1.00;;;;;;4994142;28;20053;-35
2023/04/02 00:35:21;;;;;;;3.92;1.08;;;17.90;1.00;;;;;;5012716;28;20046;-35
2023/04/02 00:37:49;;;;;;;3.28;1.40;;;17.90;1.00;;;;;;5012472;28;20044;-35
2023/04/02 00:40:20;;;;;;;2.65;1.10;;;18.00;1.00;;;;;;4994574;28;20080;-35
2023/04/02 00:42:48;;;;;;;4.00;0.95;;;18.00;1.00;;;;;;4993928;28;20072;-35
2023/04/02 00:45:35;;;;;;;5.70;1.23;;;18.10;1.00;;;;;;5012561;28;20375;-35
2023/04/02 00:48:35;;;;;;;5.15;0.98;;;18.10;1.00;;;;;;4994679;28;20516;-35
2023/04/02 00:51:23;;;;;;;3.72;1.17;;;18.20;1.00;;;;;;4994590;28;20553;-35
2023/04/02 00:53:53;;;;;;;3.92;1.13;;;18.20;1.00;;;;;;4993829;28;20502;-35
2023/04/02 00:56:44;;;;;;;5.05;1.45;;;18.20;1.00;;;;;;4978151;28;20560;-35
2023/04/02 00:59:32;;;;;;;5.50;1.20;;;18.20;1.00;;;;;;4994516;28;20057;-35
2023/04/02 01:02:18;;;;;;;5.75;1.67;;;18.20;1.00;;;;;;4994411;28;20498;-35
2023/04/02 01:04:58;;;;;;;4.50;1.10;;;18.20;1.00;;;;;;5011858;28;20555;-35
2023/04/02 01:08:10;;;;;;;2.78;1.15;;;18.20;1.00;;;;;;5012278;28;20049;-35
2023/04/02 01:10:40;;;;;;;5.68;1.10;;;18.20;1.00;;;;;;5012059;28;20046;-35
2023/04/02 01:13:21;;;;;;;2.38;0.85;;;18.20;1.00;;;;;;5011260;28;20042;-35
2023/04/02 01:16:14;;;;;;;5.90;1.30;;;18.20;1.00;;;;;;4994374;28;20050;-35
2023/04/02 01:18:49;;;;;;;4.35;1.30;;;18.20;1.00;;;;;;5011953;28;20578;-35
2023/04/02 01:21:53;;;;;;;5.15;1.40;;;18.10;1.00;;;;;;5012004;28;20038;-35
2023/04/02 01:24:23;;;;;;;9.45;1.83;;;18.10;1.00;;;;;;5011156;28;20037;-35
2023/04/02 01:26:52;;;;;;;2.85;1.50;;;18.10;1.00;;;;;;5012075;28;20464;-35
2023/04/02 01:29:34;;;;;;;5.22;1.10;;;18.00;1.00;;;;;;5011982;28;20085;-35
2023/04/02 01:32:05;;;;;;;4.45;1.08;;;18.00;1.00;;;;;;4994311;28;20050;-36
2023/04/02 01:34:33;;;;;;;7.00;1.88;;;18.00;1.00;;;;;;5011021;28;20037;-35
2023/04/02 01:37:26;;;;;;;5.15;1.20;;;17.90;1.00;;;;;;4994330;28;20116;-36
2023/04/02 01:40:26;;;;;;;5.60;1.27;;;17.90;1.00;;;;;;5012038;28;20096;-35
2023/04/02 01:43:04;;;;;;;3.38;1.15;;;17.80;1.00;;;;;;5011045;28;20042;-35
2023/04/02 01:45:33;;;;;;;3.90;1.52;;;17.80;1.00;;;;;;5011809;28;20049;-35
2023/04/02 01:48:05;;;;;;;4.00;1.13;;;17.80;1.00;;;;;;5012015;28;20042;-35
2023/04/02 01:50:37;;;;;;;3.85;1.30;;;17.70;1.00;;;;;;5011852;28;20046;-35
2023/04/02 01:53:16;;;;;;;4.32;1.90;;;17.70;1.00;;;;;;4993458;28;20062;-35
2023/04/02 01:55:52;;;;;;;3.72;1.10;;;17.70;1.00;;;;;;4994120;28;20045;-35
2023/04/02 01:58:26;;;;;;;5.13;1.20;;;17.60;1.00;;;;;;4994132;28;20510;-35
2023/04/02 02:01:17;;;;;;;3.97;1.10;;;17.60;1.00;;;;;;4994135;28;20427;-35
2023/04/02 02:03:45;;;;;;;5.35;1.48;;;17.60;1.00;;;;;;4993077;28;20113;-35
2023/04/02 02:06:15;;;;;;;4.13;1.35;;;17.60;1.00;;;;;;4994249;28;20045;-35
2023/04/02 02:08:55;;;;;;;3.30;1.00;;;17.60;1.00;;;;;;5015005;28;20030;-35
2023/04/02 02:11:27;;;;;;;5.07;1.05;;;17.70;1.00;;;;;;4997578;28;20088;-35
2023/04/02 02:13:59;;;;;;;4.43;1.10;;;17.70;1.00;;;;;;5014262;28;20485;-35
2023/04/02 02:16:28;;;;;;;2.65;1.20;;;17.70;1.00;;;;;;4997592;28;20516;-35
2023/04/02 02:19:00;;;;;;;4.75;1.67;;;17.80;1.00;;;;;;5014855;28;20046;-35
2023/04/02 02:21:26;;;;;;;5.10;1.20;;;17.80;1.00;;;;;;4997202;28;20088;-35
2023/04/02 02:23:54;;;;;;;4.30;1.25;;;17.90;1.00;;;;;;4996334;28;20049;-35
2023/04/02 02:26:24;;;;;;;4.13;1.30;;;17.90;1.00;;;;;;5014785;28;20489;-35
2023/04/02 02:28:55;;;;;;;4.65;1.35;;;18.00;1.00;;;;;;4997022;28;20050;-35
2023/04/02 02:31:28;;;;;;;4.50;1.83;;;18.00;1.00;;;;;;5014714;28;20045;-35
2023/04/02 02:34:11;;;;;;;4.10;1.40;;;18.00;1.00;;;;;;4996224;28;20093;-35
2023/04/02 02:36:48;;;;;;;2.08;0.80;;;18.10;1.00;;;;;;4997082;28;20073;-35
2023/04/02 02:39:32;;;;;;;5.10;1.73;;;18.20;1.00;;;;;;5014418;28;20057;-35
2023/04/02 02:42:11;;;;;;;1.35;0.77;;;18.20;1.00;;;;;;4996945;28;20100;-35
2023/04/02 02:44:43;;;;;;;3.17;1.00;;;18.20;1.00;;;;;;4996272;28;20073;-35
2023/04/02 02:47:38;;;;;;;4.32;1.17;;;18.20;1.00;;;;;;4996815;28;20124;-35
2023/04/02 02:50:17;;;;;;;4.00;1.10;;;18.20;1.00;;;;;;4996214;28;20379;-35
2023/04/02 02:52:49;;;;;;;2.25;1.05;;;18.20;1.00;;;;;;4995912;28;20493;-35
2023/04/02 02:55:20;;;;;;;3.33;1.02;;;18.20;1.00;;;;;;4996944;28;20042;-35
2023/04/02 02:58:22;;;;;;;2.83;0.90;;;18.20;1.00;;;;;;4996579;28;20057;-35
2023/04/02 03:01:02;;;;;;;4.45;1.27;;;18.20;1.00;;;;;;4996724;28;20541;-35
2023/04/02 03:03:33;;;;;;;3.10;0.68;;;18.20;1.00;;;;;;4995450;28;20101;-35
2023/04/02 03:06:06;;;;;;;3.22;1.13;;;18.20;1.00;;;;;;4996529;28;20100;-35
2023/04/02 03:08:40;;;;;;;5.55;1.20;;;18.20;1.00;;;;;;4980411;28;20038;-35
2023/04/02 03:11:16;;;;;;;2.67;1.08;;;18.20;1.00;;;;;;4996298;28;20052;-35
2023/04/02 03:13:47;;;;;;;1.98;1.02;;;18.10;1.00;;;;;;4995345;28;20104;-35
2023/04/02 03:16:51;;;;;;;4.13;1.30;;;18.10;1.00;;;;;;4996180;28;20448;-35
2023/04/02 03:19:58;;;;;;;4.75;1.60;;;18.00;1.00;;;;;;4955646;28;20064;-35
2023/04/02 03:22:34;;;;;;;3.42;0.68;;;18.00;1.00;;;;;;4995641;28;20052;-35
2023/04/02 03:25:15;;;;;;;2.70;1.00;;;17.90;1.00;;;;;;4995839;28;20049;-35
2023/04/02 03:27:48;;;;;;;1.85;0.93;;;17.90;1.00;;;;;;4995909;28;20046;-35
2023/04/02 03:30:30;;;;;;;1.15;0.82;;;17.90;1.00;;;;;;4996058;28;20133;-35
2023/04/02 03:33:08;;;;;;;3.55;1.30;;;17.80;1.00;;;;;;4995170;28;20421;-35
2023/04/02 03:35:47;;;;;;;4.93;1.00;;;17.80;1.00;;;;;;5013348;28;20045;-35
2023/04/02 03:38:17;;;;;;;3.97;0.90;;;17.80;1.00;;;;;;4995801;28;20502;-35
2023/04/02 03:41:08;;;;;;;3.63;1.25;;;17.80;1.00;;;;;;4995707;28;22333;-35
2023/04/02 03:44:06;;;;;;;5.22;1.38;;;17.80;1.00;;;;;;4994915;28;20096;-35
2023/04/02 03:46:39;;;;;;;3.38;0.70;;;17.80;1.00;;;;;;4995072;28;20417;-35
2023/04/02 03:49:13;;;;;;;5.18;0.80;;;17.80;1.00;;;;;;4995838;28;20338;-35
2023/04/02 03:51:54;;;;;;;;;;;17.80;1.00;;;;;;4996016;28;20080;-35
2023/04/02 03:54:21;;;;;;;5.20;0.70;;;17.90;1.00;;;;;;4994887;28;19964;-35
2023/04/02 03:56:50;;;;;;;3.92;1.10;;;17.90;1.00;;;;;;5013250;28;20449;-35
2023/04/02 03:59:30;;;;;;;3.38;1.10;;;18.00;1.00;;;;;;4980242;28;20046;-35
2023/04/02 04:02:03;;;;;;;2.45;0.70;;;18.00;1.00;;;;;;4995153;28;20042;-36
2023/04/02 04:04:31;;;;;;;4.18;0.52;;;18.00;1.00;;;;;;5041959;22;20049;-38
2023/04/02 04:07:00;;;;;;;2.47;0.90;;;18.10;1.00;;;;;;5034641;28;20060;-37
2023/04/02 04:09:40;;;;;;;2.60;0.88;;;18.10;1.00;;;;;;5034779;28;20045;-37
2023/04/02 04:12:15;;;;;;;4.25;1.17;;;18.10;1.00;;;;;;5034513;28;20041;-37
2023/04/02 04:14:51;;;;;;;3.33;1.27;;;18.20;1.00;;;;;;5014271;28;20046;-37
2023/04/02 04:17:33;;;;;;;4.43;1.10;;;18.20;1.00;;;;;;5032547;28;20045;-38
2023/04/02 04:20:32;;;;;;;3.50;0.82;;;18.20;1.00;;;;;;5014680;28;20080;-37
2023/04/02 04:23:29;;;;;;;3.00;1.13;;;18.20;1.00;;;;;;5009924;28;20515;-38
2023/04/02 04:26:08;;;;;;;2.83;0.55;;;18.30;1.00;;;;;;4999852;28;20049;-37
2023/04/02 04:29:04;;;;;;;2.22;0.77;;;18.30;1.00;;;;;;5014535;28;20050;-38
2023/04/02 04:31:41;;;;;;;4.53;0.82;;;18.30;1.00;;;;;;5014119;28;20092;-38
2023/04/02 04:34:31;;;;;;;2.92;0.80;;;18.30;1.00;;;;;;5013964;28;20277;-37
2023/04/02 04:37:01;;;;;;;2.17;0.55;;;18.30;1.00;;;;;;5014464;28;20045;-37
2023/04/02 04:39:56;;;;;;;2.97;0.73;;;18.30;1.00;;;;;;5014797;28;20141;-37
2023/04/02 04:42:28;;;;;;;4.03;1.20;;;18.30;1.00;;;;;;5013979;28;20049;-38
2023/04/02 04:45:05;;;;;;;3.90;0.98;;;18.30;1.00;;;;;;5014070;28;20068;-37
2023/04/02 04:47:37;;;;;;;1.77;0.68;;;18.30;1.00;;;;;;5014473;28;20061;-37
2023/04/02 04:50:18;;;;;;;4.85;1.50;;;18.30;1.00;;;;;;5014326;28;20050;-37
2023/04/02 04:52:45;;;;;;;1.83;0.80;;;18.20;1.00;;;;;;5013461;28;20107;-38
2023/04/02 04:55:36;;;;;;;3.85;1.25;;;18.20;1.00;;;;;;5032269;28;20518;-37
2023/04/02 04:58:32;;;;;;;4.25;1.17;;;18.10;1.00;;;;;;5014268;28;20136;-38
2023/04/02 05:01:18;;;;;;;1.13;0.60;;;18.10;1.00;;;;;;5014137;28;20087;-37
2023/04/02 05:04:15;;;;;;;4.25;0.70;;;18.00;1.00;;;;;;5013346;28;20065;-38
2023/04/02 05:06:58;;;;;;;4.05;1.10;;;18.00;1.00;;;;;;5013075;28;20413;-38
2023/04/02 05:09:41;;;;;;;3.60;0.80;;;18.00;1.00;;;;;;5000567;28;20046;-37
2023/04/02 05:12:34;;;;;;;2.35;0.52;;;17.90;1.00;;;;;;5000556;28;20057;-38
2023/04/02 05:15:28;;;;;;;3.72;0.73;;;17.90;1.00;;;;;;5000380;28;20052;-38
2023/04/02 05:18:09;;;;;;;3.50;0.65;;;17.90;1.00;;;;;;5013916;28;20053;-37
2023/04/02 05:20:48;;;;;;;2.58;0.93;;;17.90;1.00;;;;;;5013646;28;20048;-37
2023/04/02 05:23:33;;;;;;;2.20;0.88;;;17.90;1.00;;;;;;5013154;28;20128;-38
2023/04/02 05:26:09;;;;;;;3.90;0.95;;;18.00;1.00;;;;;;5013825;28;20405;-37
2023/04/02 05:28:57;;;;;;;3.10;0.73;;;18.00;1.00;;;;;;5013953;28;20046;-38
2023/04/02 05:31:47;;;;;;;3.45;0.80;;;18.00;1.00;;;;;;5013839;28;20053;-37
2023/04/02 05:34:27;;;;;;;5.03;0.85;;;18.00;1.00;;;;;;5012917;28;20053;-37
2023/04/02 05:36:55;;;;;;;2.72;0.70;;;18.10;1.00;;;;;;5013934;28;20053;-38
2023/04/02 05:39:26;;;;;;;5.63;1.45;;;18.10;1.00;;;;;;5013696;28;20045;-38
2023/04/02 05:42:04;;;;;;;;;;;18.10;1.00;;;;;;5016351;28;20073;-37
2023/04/02 05:45:05;;;;;;;1.95;0.57;;;18.20;1.00;;;;;;5017030;28;20295;-37
2023/04/02 05:47:34;;;;;;;2.63;1.20;;;18.20;1.00;;;;;;5017614;28;20492;-37
2023/04/02 05:50:29;;;;;;;3.97;0.80;;;18.20;1.00;;;;;;5035165;28;20045;-37
2023/04/02 05:53:07;;;;;;;3.72;0.95;;;18.20;1.00;;;;;;5034514;28;20537;-37
2023/04/02 05:55:50;;;;;;;1.95;0.50;;;18.30;1.00;;;;;;5017439;28;20049;-37
2023/04/02 05:58:26;;;;;;;2.80;0.75;;;18.30;1.00;;;;;;5017397;28;20045;-38
2023/04/02 06:01:06;;;;;;;3.53;0.60;;;18.30;1.00;;;;;;5017138;28;20045;-37
2023/04/02 06:03:50;;;;;;;3.03;0.90;;;18.30;1.00;;;;;;5016456;28;20504;-38
2023/04/02 06:06:40;;;;;;;3.90;0.60;;;18.30;1.00;;;;;;5034957;28;20049;-37
2023/04/02 06:09:33;;;;;;;1.23;0.70;;;18.40;1.00;;;;;;5017168;28;20069;-37
2023/04/02 06:12:20;;;;;;;;;;;18.40;1.00;;;;;;5017565;28;20432;-37
2023/04/02 06:14:47;;;;;;;3.95;0.80;;;18.40;1.00;;;;;;5016459;28;19952;-37
2023/04/02 06:17:16;;;;;;;1.95;1.00;;;18.40;1.00;;;;;;5034799;28;20042;-38
2023/04/02 06:19:44;;;;;;;2.00;0.40;;;18.40;1.00;;;;;;5016681;28;20183;-37
2023/04/02 06:22:37;;;;;;;3.97;1.13;;;18.40;1.00;;;;;;5016284;28;20038;-38
2023/04/02 06:25:19;;;;;;;1.85;0.63;;;18.50;1.00;;;;;;5016471;28;20571;-38
2023/04/02 06:27:49;;;;;;;4.80;0.70;;;18.50;1.00;;;;;;5016919;28;20132;-38
2023/04/02 06:30:29;;;;;;;2.33;0.82;;;18.50;1.00;;;;;;5016171;28;20237;-37
2023/04/02 06:32:57;;;;;;;1.70;0.57;;;18.40;1.00;;;;;;5015913;28;20060;-37
2023/04/02 06:35:25;;;;;;;0.95;0.40;;;18.40;1.00;;;;;;5016492;28;20512;-37
2023/04/02 06:38:03;;;;;;;3.75;0.85;;;18.40;1.00;;;;;;5016630;28;20137;-38
2023/04/02 06:40:58;;;;;;;4.80;0.60;;;18.40;1.00;;;;;;5016328;28;20049;-37
2023/04/02 06:44:10;;;;;;;5.10;0.70;;;18.40;1.00;;;;;;5018270;28;20045;-37
2023/04/02 06:46:58;;;;;;;2.63;0.55;;;18.40;1.00;;;;;;5034187;28;20575;-37
2023/04/02 06:49:35;;;;;;;3.40;0.85;;;18.30;1.00;;;;;;5016220;28;20041;-37
2023/04/02 06:52:14;;;;;;;2.25;0.73;;;18.30;1.00;;;;;;5016358;28;20600;-37
2023/04/02 06:54:41;;;;;;;2.50;0.47;;;18.30;1.00;;;;;;5015391;28;20049;-37
2023/04/02 06:57:11;;;;;;;2.33;0.63;;;18.30;1.00;;;;;;5016232;28;20095;-37
2023/04/02 06:59:40;;;;;;;3.28;0.50;;;18.20;1.00;;;;;;5016054;28;20049;-37
2023/04/02 07:02:34;;;;;;;3.45;0.60;;;18.20;1.00;;;;;;5032668;28;20108;-38
2023/04/02 07:05:08;;;;;;;2.97;0.75;;;18.20;1.00;;;;;;5015949;28;20049;-37
2023/04/02 07:07:38;;;;;;;3.63;0.40;;;18.20;1.00;;;;;;5015952;28;20421;-37
2023/04/02 07:10:08;;;;;;;6.00;0.80;;;18.20;1.00;;;;;;5015857;28;20045;-37
2023/04/02 07:12:35;;;;;;;3.30;0.80;;;18.10;1.00;;;;;;5015421;28;20045;-37
2023/04/02 07:15:02;;;;;;;3.13;0.57;;;18.10;1.00;;;;;;5015418;28;20041;-37
2023/04/02 07:17:30;;;;;;;3.30;0.75;;;18.10;1.00;;;;;;5015508;28;20053;-37
2023/04/02 07:19:58;;;;;;;1.35;0.63;;;18.00;1.00;;;;;;5015728;28;20054;-37
2023/04/02 07:22:25;;;;;;;1.23;0.43;;;18.00;1.00;;;;;;5032959;28;20045;-38
2023/04/02 07:24:57;;;;;;;4.55;0.65;;;18.00;1.00;;;;;;5015212;28;20148;-37
2023/04/02 07:27:25;;;;;;;2.67;0.55;;;17.90;1.00;;;;;;5033496;28;20413;-37
2023/04/02 07:29:51;;;;;;;4.78;0.88;;;17.90;1.00;;;;;;5032977;28;20505;-37
2023/04/02 07:32:18;;;;;;;1.88;0.50;;;17.80;1.00;;;;;;5032565;28;20037;-37
2023/04/02 07:34:46;;;;;;;1.75;0.55;;;17.80;1.00;;;;;;5014841;28;20492;-37
2023/04/02 07:37:13;;;;;;;3.35;0.70;;;17.80;1.00;;;;;;5033181;28;20042;-37
2023/04/02 07:39:40;;;;;;;1.52;0.52;;;17.80;1.00;;;;;;5033088;28;20049;-37
2023/04/02 07:42:07;;;;;;;2.80;0.47;;;17.70;1.00;;;;;;5032969;28;20095;-37
2023/04/02 07:44:34;;;;;;;2.88;0.50;;;17.70;1.00;;;;;;5032450;28;20041;-37
2023/04/02 07:47:00;;;;;;;3.50;0.70;;;17.70;1.00;;;;;;5032975;28;20061;-38
2023/04/02 07:49:27;;;;;;;2.58;0.50;;;17.60;1.00;;;;;;5032623;28;20095;-38
2023/04/02 07:51:54;;;;;;;2.22;0.60;;;17.60;1.00;;;;;;5032850;28;20038;-37
2023/04/02 07:54:21;;;;;;;2.75;1.10;;;17.60;1.00;;;;;;5031982;28;20404;-37
2023/04/02 07:56:48;;;;;;;3.08;0.40;;;17.50;1.00;;;;;;5033032;28;20041;-37
2023/04/02 07:59:15;;;;;;;2.95;0.77;;;17.50;1.00;;;;;;5032747;28;20438;-37
2023/04/02 08:01:42;;;;;;;2.65;0.63;;;17.50;1.00;;;;;;5015281;28;20049;-37
2023/04/02 08:04:17;;;;;;;3.85;0.68;;;17.50;1.00;;;;;;5031083;28;20048;-37
2023/04/02 08:06:44;;;;;;;1.90;0.77;;;17.50;1.00;;;;;;5032819;28;20038;-37
2023/04/02 08:09:12;;;;;;;3.33;0.90;;;17.50;1.00;;;;;;5032797;28;20452;-38
2023/04/02 08:11:40;;;;;;;4.50;0.47;;;17.40;1.00;;;;;;5032390;28;20484;-37
2023/04/02 08:14:08;;;;;;;3.60;0.63;;;17.40;1.00;;;;;;5031659;28;20120;-38
2023/04/02 08:16:50;;;;;;;2.15;0.40;;;17.40;1.00;;;;;;5032288;28;20065;-37
2023/04/02 08:19:17;;;;;;;2.38;0.52;;;17.40;1.00;;;;;;5032457;28;20045;-37
2023/04/02 08:21:45;;;;;;;3.03;0.60;;;17.40;1.00;;;;;;5032292;28;20037;-37
2023/04/02 08:24:11;;;;;;;2.60;0.60;;;17.40;1.00;;;;;;5031686;28;20052;-37
2023/04/02 08:26:38;;;;;;;3.03;0.98;;;17.40;1.00;;;;;;5032991;28;20412;-37
2023/04/02 08:29:05;;;;;;;1.40;0.40;;;17.40;1.00;;;;;;5032097;28;20041;-38
2023/04/02 08:31:32;;;;;;;2.83;0.43;;;17.40;1.00;;;;;;5032234;28;20045;-37
2023/04/02 08:33:58;;;;;;;1.48;0.40;;;17.40;1.00;;;;;;5031379;28;20485;-37
2023/04/02 08:36:33;;;;;;;5.55;1.00;;;17.40;1.00;;;;;;5032249;28;20083;-37
2023/04/02 08:39:00;;;;;;;1.88;0.52;;;17.30;1.00;;;;;;5032179;28;20107;-38
2023/04/02 08:41:27;;;;;;;4.75;0.60;;;17.30;1.00;;;;;;5031845;28;20045;-37
2023/04/02 08:44:20;;;;;;;2.05;0.55;;;17.30;1.00;;;;;;5031145;28;20136;-37
2023/04/02 08:46:53;;;;;;;4.13;0.85;;;17.30;1.00;;;;;;5032172;28;20467;-37
2023/04/02 08:49:35;;;;;;;2.13;0.30;;;17.30;1.00;;;;;;5031930;28;20096;-37
2023/04/02 08:52:03;;;;;;;2.83;0.47;;;17.30;1.00;;;;;;5032056;28;20041;-37
2023/04/02 08:54:32;;;;;;;2.42;0.60;;;17.30;1.00;;;;;;5031172;28;20160;-37
2023/04/02 08:57:28;;;;;;;2.10;0.40;;;17.30;1.00;;;;;;5032125;28;20042;-37
2023/04/02 09:00:09;;;;;;;3.38;0.55;;;17.30;1.00;;;;;;5022504;28;20057;-37
2023/04/02 09:02:46;;;;;;;2.08;0.30;;;17.30;1.00;;;;;;5031235;28;20042;-37
2023/04/02 09:05:22;;;;;;;0.85;0.52;;;17.30;1.00;;;;;;5031955;28;20047;-37
2023/04/02 09:07:51;;;;;;;1.23;0.35;;;17.30;1.00;;;;;;5014238;28;20162;-37
2023/04/02 09:10:18;;;;;;;2.45;0.77;;;17.40;1.00;;;;;;5031729;28;20033;-37
2023/04/02 09:12:50;;;;;;;1.17;0.40;;;17.40;1.00;;;;;;5030826;28;20088;-37
2023/04/02 09:15:33;;;;;;;2.38;0.57;;;17.40;1.00;;;;;;5031759;28;20060;-37
2023/04/02 09:18:12;;;;;;;2.55;0.73;;;17.40;1.00;;;;;;5035841;28;20421;-37
2023/04/02 09:20:39;;;;;;;1.25;0.40;;;17.40;1.00;;;;;;5036191;28;20080;-38
2023/04/02 09:23:15;;;;;;;1.65;0.40;;;17.40;1.00;;;;;;5034737;28;20046;-38
2023/04/02 09:25:45;;;;;;;4.28;0.75;;;17.40;1.00;;;;;;5035637;28;20049;-37
2023/04/02 09:28:27;;;;;;;2.47;0.50;;;17.30;1.00;;;;;;5035815;28;20037;-37
2023/04/02 09:31:11;;;;;;;3.80;0.65;;;17.40;1.00;;;;;;5035545;28;20037;-38
2023/04/02 09:33:47;;;;;;;2.83;0.95;;;17.40;1.00;;;;;;5034622;28;20096;-37
2023/04/02 09:36:34;;;;;;;3.35;0.40;;;17.40;1.00;;;;;;5035644;28;20045;-38
2023/04/02 09:39:18;;;;;;;1.85;0.50;;;17.40;1.00;;;;;;5035451;28;20435;-37
2023/04/02 09:41:46;;;;;;;1.98;0.43;;;17.40;1.00;;;;;;5035399;28;20049;-38
2023/04/02 09:44:30;;;;;;;0.90;0.20;;;17.40;1.00;;;;;;5034413;28;20077;-38
2023/04/02 09:47:25;;;;;;;1.40;0.57;;;17.40;1.00;;;;;;5035426;28;20408;-37
2023/04/02 09:49:51;;;;;;;1.52;0.38;;;17.40;1.00;;;;;;5035198;28;20469;-37
2023/04/02 09:52:28;;;;;;;1.52;0.50;;;17.30;1.00;;;;;;5035332;28;20386;-38
2023/04/02 09:55:14;;;;;;;3.78;0.52;;;17.30;1.00;;;;;;5034695;28;20041;-38
2023/04/02 09:57:45;;;;;;;3.60;0.40;;;17.30;1.00;;;;;;5035124;28;20049;-38
2023/04/02 10:00:17;;;;;;;1.83;0.40;;;17.30;1.00;;;;;;5034992;28;20041;-37
2023/04/02 10:03:04;;;;;;;2.05;0.35;;;17.30;1.00;;;;;;5048207;22;20042;-34
2023/04/02 10:05:32;;;;;;;1.95;0.47;;;17.30;1.00;;;;;;5036926;28;20443;-34
2023/04/02 10:08:17;;;;;;;1.92;0.70;;;17.30;1.00;;;;;;5054517;28;20045;-33
2023/04/02 10:10:49;;;;;;;1.90;0.30;;;17.30;1.00;;;;;;5054797;28;20037;-34
2023/04/02 10:13:25;;;;;;;3.42;0.70;;;17.30;1.00;;;;;;5053732;28;20079;-33
2023/04/02 10:16:01;;;;;;;2.40;0.50;;;17.40;1.00;;;;;;5054553;28;20063;-33
2023/04/02 10:18:43;;;;;;;1.23;0.50;;;17.30;1.00;;;;;;5054952;28;20057;-33
2023/04/02 10:21:14;;;;;;;2.22;0.70;;;17.30;1.00;;;;;;5054467;28;20094;-33
2023/04/02 10:23:41;;;;;;;1.25;0.30;;;17.40;1.00;;;;;;5053622;28;20317;-34
2023/04/02 10:26:19;;;;;;;2.30;1.33;;;17.30;1.00;;;;;;5054524;28;20049;-34
2023/04/02 10:29:01;;;;;;;1.65;0.55;;;17.30;1.00;;;;;;5053260;28;20056;-34
2023/04/02 10:31:39;;;;;;;1.45;0.47;;;17.30;1.00;;;;;;5054384;28;20045;-34
2023/04/02 10:34:14;;;;;;;2.45;0.95;;;17.30;1.00;;;;;;5053421;28;20045;-34
2023/04/02 10:36:54;;;;;;;1.52;0.28;;;17.30;1.00;;;;;;5054318;28;20045;-34
2023/04/02 10:39:38;;;;;;;1.05;0.30;;;17.40;1.00;;;;;;5054140;28;20072;-33
2023/04/02 10:42:05;;;;;;;;;;;17.30;1.00;;;;;;5054540;28;20052;-33
2023/04/02 10:45:03;;;;;;;1.85;1.00;;;17.30;1.00;;;;;;5053472;28;19947;-33
2023/04/02 10:47:59;;;;;;;2.63;0.38;;;17.30;1.00;;;;;;5023625;28;20103;-34
2023/04/02 10:50:38;;;;;;;2.50;0.80;;;17.30;1.00;;;;;;5054040;28;20041;-33
2023/04/02 10:53:16;;;;;;;1.48;0.65;;;17.30;1.00;;;;;;5053238;28;20063;-34
2023/04/02 10:55:49;;;;;;;1.33;0.35;;;17.30;1.00;;;;;;5053881;28;20166;-33
2023/04/02 10:58:23;;;;;;;4.35;0.65;;;17.30;1.00;;;;;;5053924;28;20504;-34
2023/04/02 11:00:54;;;;;;;1.42;0.30;;;17.30;1.00;;;;;;5053838;28;20094;-34
2023/04/02 11:03:35;;;;;;;2.70;0.60;;;17.30;1.00;;;;;;5052904;28;20064;-34
2023/04/02 11:06:16;;;;;;;1.38;0.30;;;17.30;1.00;;;;;;5053600;28;20128;-33
2023/04/02 11:08:46;;;;;;;1.92;0.30;;;17.30;1.00;;;;;;5053718;28;20045;-34
2023/04/02 11:11:29;;;;;;;2.20;0.50;;;17.30;1.00;;;;;;5053698;28;20132;-34
2023/04/02 11:14:12;;;;;;;4.93;0.60;;;17.30;1.00;;;;;;5052696;28;20493;-33
2023/04/02 11:16:40;;;;;;;0.80;0.32;;;17.30;1.00;;;;;;5053774;28;20083;-34
2023/04/02 11:19:16;;;;;;;1.77;0.55;;;17.30;1.00;;;;;;5053529;28;20048;-34
2023/04/02 11:21:48;;;;;;;1.75;0.50;;;17.20;1.00;;;;;;5053494;28;20052;-34
2023/04/02 11:24:35;;;;;;;1.33;0.35;;;17.20;1.00;;;;;;5052313;28;20048;-34
2023/04/02 11:27:13;;;;;;;2.42;0.43;;;17.20;1.00;;;;;;5053371;28;20162;-33
2023/04/02 11:30:05;;;;;;;3.03;0.50;;;17.20;1.00;;;;;;5053250;28;20037;-34
2023/04/02 11:32:48;;;;;;;2.50;0.60;;;17.20;1.00;;;;;;5052747;28;20100;-34
2023/04/02 11:35:30;;;;;;;3.03;0.93;;;17.20;1.00;;;;;;5053168;28;20045;-33
2023/04/02 11:38:04;;;;;;;1.60;0.50;;;17.20;1.00;;;;;;5035382;28;20045;-33
2023/04/02 11:40:56;;;;;;;3.00;0.40;;;17.20;1.00;;;;;;5052751;28;20577;-33
2023/04/02 11:43:33;;;;;;;3.97;0.45;;;17.20;1.00;;;;;;5052233;28;20052;-33
2023/04/02 11:46:28;;;;;;;3.72;1.48;;;17.20;1.00;;;;;;5052814;28;20041;-34
2023/04/02 11:49:35;;;;;;;1.02;0.20;;;17.20;1.00;;;;;;5052705;28;20040;-33
2023/04/02 11:52:04;;;;;;;1.30;0.30;;;17.20;1.00;;;;;;5052966;28;20483;-33
2023/04/02 11:54:38;;;;;;;0.93;0.40;;;17.20;1.00;;;;;;5052140;28;20136;-33
2023/04/02 11:57:52;;;;;;;2.80;0.30;;;17.10;1.00;;;;;;5052668;28;20045;-33
2023/04/02 12:00:38;;;;;;;3.22;0.60;;;17.10;1.00;;;;;;5015217;28;20049;-33
2023/04/02 12:03:39;;;;;;;3.70;0.68;;;17.10;1.00;;;;;;5051644;28;20045;-33
2023/04/02 12:06:20;;;;;;;4.68;0.88;;;17.10;1.00;;;;;;5052409;28;20506;-33
2023/04/02 12:09:14;;;;;;;2.10;0.20;;;17.10;1.00;;;;;;5052579;28;20048;-33
2023/04/02 12:11:42;;;;;;;2.08;0.30;;;17.10;1.00;;;;;;5052406;28;20488;-33
2023/04/02 12:14:40;;;;;;;3.03;1.17;;;17.10;1.00;;;;;;5051449;28;20049;-34
2023/04/02 12:17:20;;;;;;;1.95;0.30;;;17.10;1.00;;;;;;5052563;28;20049;-34
2023/04/02 12:19:53;;;;;;;3.13;0.25;;;17.10;1.00;;;;;;5034584;28;20455;-33
2023/04/02 12:22:30;;;;;;;2.63;0.50;;;17.10;1.00;;;;;;5051785;28;20555;-34
2023/04/02 12:25:05;;;;;;;1.65;0.30;;;17.10;1.00;;;;;;5051762;28;20538;-33
2023/04/02 12:27:36;;;;;;;2.35;0.60;;;17.10;1.00;;;;;;5052321;28;20087;-33
2023/04/02 12:30:11;;;;;;;2.05;0.60;;;17.00;1.00;;;;;;5052160;28;20040;-33
2023/04/02 12:32:38;;;;;;;6.00;1.02;;;17.00;1.00;;;;;;5051163;28;20488;-34
2023/04/02 12:35:05;;;;;;;1.50;0.50;;;17.00;1.00;;;;;;5052011;28;20037;-34
2023/04/02 12:37:32;;;;;;;2.75;0.88;;;17.00;1.00;;;;;;5052097;28;20048;-34
2023/04/02 12:40:07;;;;;;;2.30;0.57;;;17.00;1.00;;;;;;5052030;28;20477;-34
2023/04/02 12:42:36;;;;;;;3.25;0.55;;;17.00;1.00;;;;;;5051681;28;20049;-34
2023/04/02 12:45:08;;;;;;;3.88;0.60;;;17.00;1.00;;;;;;5051756;28;20044;-34
2023/04/02 12:47:35;;;;;;;2.95;1.00;;;17.00;1.00;;;;;;5052006;28;20041;-34
2023/04/02 12:50:02;;;;;;;4.68;0.82;;;17.00;1.00;;;;;;5034123;28;20055;-34
2023/04/02 12:52:29;;;;;;;1.23;0.40;;;17.00;1.00;;;;;;5051387;28;20049;-34
2023/04/02 12:55:02;;;;;;;1.67;0.47;;;17.00;1.00;;;;;;5051420;28;20275;-34
2023/04/02 12:57:33;;;;;;;3.00;0.30;;;17.00;1.00;;;;;;5051908;28;20110;-34
2023/04/02 13:00:20;;;;;;;2.78;0.30;;;16.90;1.00;;;;;;5051682;28;20048;-34
2023/04/02 13:03:17;;;;;;;1.75;0.70;;;16.90;1.00;;;;;;5037486;28;20052;-35
2023/04/02 13:05:49;;;;;;;6.32;0.55;;;16.90;1.00;;;;;;5051759;28;20119;-34
2023/04/02 13:08:23;;;;;;;2.17;0.40;;;16.90;1.00;;;;;;5051639;28;20045;-34
2023/04/02 13:10:59;;;;;;;3.00;0.35;;;16.90;1.00;;;;;;5051389;28;20041;-34
2023/04/02 13:13:32;;;;;;;3.13;0.38;;;16.90;1.00;;;;;;5050991;28;20063;-34
2023/04/02 13:16:20;;;;;;;2.28;0.28;;;16.90;1.00;;;;;;5051770;28;20041;-34
2023/04/02 13:18:48;;;;;;;1.52;0.40;;;16.90;1.00;;;;;;5051429;28;20440;-34
2023/04/02 13:21:18;;;;;;;1.55;0.50;;;16.90;1.00;;;;;;5051663;28;20480;-34
2023/04/02 13:23:45;;;;;;;3.17;0.43;;;16.90;1.00;;;;;;5050651;28;20484;-34
2023/04/02 13:26:19;;;;;;;2.42;0.30;;;16.90;1.00;;;;;;5051456;28;20213;-34
2023/04/02 13:29:17;;;;;;;1.98;0.60;;;16.90;1.00;;;;;;5033482;28;20408;-34
2023/04/02 13:31:44;;;;;;;2.85;1.00;;;16.90;1.00;;;;;;5051596;28;20053;-34
2023/04/02 13:34:11;;;;;;;3.60;0.65;;;16.90;1.00;;;;;;5050666;28;20048;-34
2023/04/02 13:36:38;;;;;;;2.97;0.52;;;16.80;1.00;;;;;;5051543;28;20089;-34
2023/04/02 13:39:04;;;;;;;2.97;0.60;;;16.80;1.00;;;;;;5051323;28;20045;-34
2023/04/02 13:41:40;;;;;;;5.18;0.50;;;16.80;1.00;;;;;;5051276;28;20471;-34
2023/04/02 13:44:18;;;;;;;2.78;0.65;;;16.80;1.00;;;;;;5050604;28;20037;-34
2023/04/02 13:46:45;;;;;;;6.13;0.93;;;16.80;1.00;;;;;;5051341;28;20075;-34
2023/04/02 13:49:12;;;;;;;4.63;1.05;;;16.80;1.00;;;;;;5051364;28;20558;-34
2023/04/02 13:51:43;;;;;;;4.60;0.75;;;16.80;1.00;;;;;;5051334;28;20041;-34